createdAt,value
2022-12-03T00:02:56.835Z,12.90
2022-12-03T00:07:59.962Z,12.80
2022-12-03T00:13:03.121Z,14.10
2022-12-03T00:18:08.927Z,15.00
2022-12-03T00:23:11.799Z,16.20
2022-12-03T00:28:17.749Z,14.00
2022-12-03T00:33:22.067Z,13.60
2022-12-03T00:38:24.934Z,14.00
2022-12-03T00:43:28.003Z,14.00
2022-12-03T00:48:33.498Z,13.00
2022-12-03T00:53:39.146Z,17.20
2022-12-03T00:58:42.068Z,14.90
2022-12-03T01:03:45.065Z,13.10
2022-12-03T01:08:50.857Z,12.00
2022-12-03T01:13:56.756Z,14.70
2022-12-03T01:18:59.757Z,14.70
2022-12-03T01:24:03.771Z,16.00
2022-12-03T01:29:07.845Z,15.00
2022-12-03T01:34:11.171Z,15.50
2022-12-03T01:39:18.823Z,13.60
2022-12-03T01:44:34.434Z,14.50
2022-12-03T01:50:20.685Z,15.70
2022-12-03T01:55:26.055Z,14.90
2022-12-03T02:00:30.234Z,14.60
2022-12-03T02:05:34.477Z,14.30
2022-12-03T02:10:38.690Z,16.20
2022-12-03T02:15:41.682Z,14.10
2022-12-03T02:20:58.320Z,15.80
2022-12-03T02:26:01.292Z,16.40
2022-12-03T02:31:05.511Z,16.40
2022-12-03T02:36:09.455Z,13.10
2022-12-03T02:41:37.329Z,15.80
2022-12-03T02:46:40.691Z,14.10
2022-12-03T02:51:43.606Z,14.80
2022-12-03T02:56:46.523Z,13.20
2022-12-03T03:01:49.587Z,15.80
2022-12-03T03:06:53.103Z,12.20
2022-12-03T03:11:56.149Z,14.70
2022-12-03T03:16:59.269Z,13.40
2022-12-03T03:22:02.221Z,12.70
2022-12-03T03:27:06.279Z,11.40
2022-12-03T03:32:09.334Z,11.30
2022-12-03T03:37:12.530Z,12.20
2022-12-03T03:42:15.903Z,12.30
2022-12-03T03:47:20.326Z,10.40
2022-12-03T03:52:23.686Z,8.40
2022-12-03T03:57:26.876Z,11.00
2022-12-03T04:02:29.811Z,11.70
2022-12-03T04:07:32.798Z,10.70
2022-12-03T04:12:54.784Z,11.70
2022-12-03T04:18:16.972Z,10.60
2022-12-03T04:23:19.858Z,11.50
2022-12-03T04:28:41.722Z,14.10
2022-12-03T04:34:03.505Z,12.20
2022-12-03T04:39:06.579Z,11.50
2022-12-03T04:44:28.088Z,14.00
2022-12-03T04:49:32.188Z,12.80
2022-12-03T04:54:35.150Z,11.90
2022-12-03T04:59:38.849Z,14.30
2022-12-03T05:04:41.807Z,14.90
2022-12-03T05:09:44.752Z,13.70
2022-12-03T05:14:48.362Z,9.70
2022-12-03T05:20:10.207Z,13.30
2022-12-03T05:25:13.096Z,14.00
2022-12-03T05:30:16.340Z,15.90
2022-12-03T05:35:19.453Z,13.80
2022-12-03T05:40:22.890Z,12.50
2022-12-03T05:45:36.210Z,15.90
2022-12-03T05:50:43.348Z,12.30
2022-12-03T05:55:46.198Z,14.00
2022-12-03T06:00:49.100Z,14.60
2022-12-03T06:05:52.067Z,14.50
2022-12-03T06:10:55.015Z,13.80
2022-12-03T06:15:58.106Z,10.80
2022-12-03T06:21:01.018Z,13.80
2022-12-03T06:26:03.980Z,15.50
2022-12-03T06:31:07.297Z,16.20
2022-12-03T06:36:10.262Z,15.60
2022-12-03T06:41:13.122Z,15.70
2022-12-03T06:46:16.166Z,15.70
2022-12-03T06:51:19.106Z,12.70
2022-12-03T06:56:22.692Z,12.40
2022-12-03T07:01:26.205Z,12.20
2022-12-03T07:06:29.097Z,12.20
2022-12-03T07:11:32.047Z,16.10
2022-12-03T07:16:36.624Z,13.10
2022-12-03T07:21:39.798Z,14.40
2022-12-03T07:26:42.696Z,14.20
2022-12-03T07:31:45.801Z,15.00
2022-12-03T07:36:48.875Z,10.60
2022-12-03T07:41:51.865Z,13.00
2022-12-03T07:46:55.566Z,14.20
2022-12-03T07:51:58.642Z,16.10
2022-12-03T07:57:02.141Z,14.70
2022-12-03T08:02:05.492Z,15.10
2022-12-03T08:07:08.517Z,15.20
2022-12-03T08:12:20.650Z,14.80
2022-12-03T08:17:24.678Z,14.60
2022-12-03T08:22:27.639Z,13.40
2022-12-03T08:27:31.015Z,14.00
2022-12-03T08:32:33.892Z,13.90
2022-12-03T08:37:36.948Z,12.80
2022-12-03T08:42:43.126Z,14.70
2022-12-03T08:47:46.370Z,15.80
2022-12-03T08:52:49.824Z,16.00
2022-12-03T08:57:53.854Z,13.70
2022-12-03T09:03:00.973Z,14.10
2022-12-03T09:08:04.013Z,14.90
2022-12-03T09:13:07.110Z,14.70
2022-12-03T09:18:10.175Z,14.50
2022-12-03T09:23:13.065Z,14.00
2022-12-03T09:28:16.028Z,11.60
2022-12-03T09:33:19.015Z,14.00
2022-12-03T09:38:22.259Z,16.20
2022-12-03T09:43:49.381Z,13.70
2022-12-03T09:48:51.353Z,11.40
2022-12-03T09:53:54.342Z,12.20
2022-12-03T09:58:57.735Z,12.70
2022-12-03T10:04:02.167Z,11.10
2022-12-03T10:09:06.924Z,14.50
2022-12-03T10:14:14.732Z,15.00
2022-12-03T10:19:28.932Z,13.90
2022-12-03T10:24:35.472Z,15.90
2022-12-03T10:29:38.407Z,13.80
2022-12-03T10:34:42.716Z,13.90
2022-12-03T10:40:02.610Z,14.30
2022-12-03T10:45:08.545Z,11.90
2022-12-03T10:50:19.342Z,12.00
2022-12-03T10:55:22.357Z,14.70
2022-12-03T11:00:25.544Z,17.60
2022-12-03T11:05:28.629Z,15.70
2022-12-03T11:10:31.823Z,13.50
2022-12-03T11:15:45.515Z,14.70
2022-12-03T11:21:00.390Z,17.80
2022-12-03T11:26:03.281Z,13.10
2022-12-03T11:31:12.471Z,14.30
2022-12-03T11:36:16.839Z,17.20
2022-12-03T11:41:33.514Z,16.40
2022-12-03T11:46:36.623Z,15.50
2022-12-03T11:51:44.246Z,16.30
2022-12-03T11:56:50.146Z,16.10
2022-12-03T12:01:53.120Z,17.30
2022-12-03T12:06:56.118Z,16.80
2022-12-03T12:12:20.318Z,15.40
2022-12-03T12:17:37.193Z,17.10
2022-12-03T12:22:40.144Z,16.80
2022-12-03T12:27:45.697Z,17.60
2022-12-03T12:32:56.830Z,18.90
2022-12-03T12:38:11.027Z,14.60
2022-12-03T12:43:29.717Z,19.10
2022-12-03T12:48:35.549Z,16.40
2022-12-03T12:53:42.895Z,18.10
2022-12-03T12:58:46.389Z,16.10
2022-12-03T13:03:52.652Z,16.40
2022-12-03T13:08:57.133Z,16.60
2022-12-03T13:14:10.882Z,17.20
2022-12-03T13:19:43.331Z,15.70
2022-12-03T13:24:54.341Z,20.50
2022-12-03T13:30:02.915Z,20.20
2022-12-03T13:35:09.730Z,15.10
2022-12-03T13:40:28.280Z,15.70
2022-12-03T13:45:37.684Z,16.50
2022-12-03T13:50:46.188Z,19.20
2022-12-03T13:56:01.226Z,17.30
2022-12-03T14:01:04.184Z,17.90
2022-12-03T14:06:07.264Z,19.80
2022-12-03T14:11:31.213Z,17.10
2022-12-03T14:16:34.198Z,17.60
2022-12-03T14:21:37.512Z,20.40
2022-12-03T14:26:40.492Z,21.30
2022-12-03T14:31:43.430Z,15.50
2022-12-03T14:36:46.596Z,20.70
2022-12-03T14:42:08.534Z,22.40
2022-12-03T14:47:12.998Z,23.60
2022-12-03T14:52:16.144Z,16.00
2022-12-03T14:57:19.264Z,21.00
2022-12-03T15:02:22.249Z,21.30
2022-12-03T15:07:25.496Z,20.50
2022-12-03T15:12:28.458Z,19.10
2022-12-03T15:17:32.284Z,19.20
2022-12-03T15:22:35.411Z,20.70
2022-12-03T15:27:38.415Z,19.40
2022-12-03T15:32:41.435Z,18.40
2022-12-03T15:37:45.654Z,15.90
2022-12-03T15:42:48.973Z,22.60
2022-12-03T15:47:51.897Z,22.50
2022-12-03T15:52:55.517Z,18.60
2022-12-03T15:57:58.493Z,20.70
2022-12-03T16:03:01.531Z,19.10
2022-12-03T16:08:04.937Z,19.70
2022-12-03T16:13:08.039Z,19.60
2022-12-03T16:18:11.264Z,22.10
2022-12-03T16:23:14.201Z,19.00
2022-12-03T16:28:17.177Z,18.90
2022-12-03T16:33:25.665Z,23.90
2022-12-03T16:38:31.343Z,19.40
2022-12-03T16:43:36.033Z,17.40
2022-12-03T16:48:39.068Z,19.00
2022-12-03T16:53:42.588Z,19.00
2022-12-03T16:58:45.748Z,18.40
2022-12-03T17:03:48.902Z,19.40
2022-12-03T17:08:51.871Z,19.40
2022-12-03T17:13:54.794Z,18.40
2022-12-03T17:18:58.048Z,18.90
2022-12-03T17:24:01.199Z,15.70
2022-12-03T17:29:04.899Z,20.20
2022-12-03T17:34:08.187Z,20.90
2022-12-03T17:39:11.093Z,19.00
2022-12-03T17:44:19.456Z,22.00
2022-12-03T17:49:28.395Z,20.00
2022-12-03T17:55:01.879Z,17.50
2022-12-03T17:59:57.612Z,16.70
2022-12-03T18:05:00.611Z,19.30
2022-12-03T18:10:04.595Z,22.10
2022-12-03T18:15:09.127Z,22.80
2022-12-03T18:20:12.406Z,18.00
2022-12-03T18:25:15.434Z,19.40
2022-12-03T18:30:18.959Z,21.10
2022-12-03T18:35:22.143Z,19.70
2022-12-03T18:40:27.314Z,19.60
2022-12-03T18:45:30.288Z,22.70
2022-12-03T18:50:33.316Z,19.80
2022-12-03T18:55:36.648Z,21.90
2022-12-03T19:00:40.437Z,20.40
2022-12-03T19:05:43.649Z,21.40
2022-12-03T19:10:59.824Z,20.20
2022-12-03T19:16:06.046Z,19.30
2022-12-03T19:21:13.043Z,19.30
2022-12-03T19:26:16.132Z,21.70
2022-12-03T19:31:19.909Z,32.10
2022-12-03T19:36:29.505Z,28.70
2022-12-03T19:41:32.714Z,23.70
2022-12-03T19:46:35.698Z,24.00
2022-12-03T19:51:38.647Z,23.50
2022-12-03T19:56:41.642Z,21.90
2022-12-03T20:01:44.934Z,20.50
2022-12-03T20:06:48.451Z,18.50
2022-12-03T20:11:51.833Z,12.60
2022-12-03T20:16:55.166Z,23.00
2022-12-03T20:22:02.585Z,21.90
2022-12-03T20:27:06.397Z,20.10
2022-12-03T20:32:09.512Z,22.90
2022-12-03T20:37:12.702Z,20.80
2022-12-03T20:42:15.698Z,21.60
2022-12-03T20:47:19.567Z,20.00
2022-12-03T20:52:22.658Z,21.00
2022-12-03T20:57:25.641Z,25.70
2022-12-03T21:02:28.837Z,20.70
2022-12-03T21:07:32.053Z,23.20
2022-12-03T21:12:34.997Z,22.20
2022-12-03T21:17:38.407Z,20.30
2022-12-03T21:22:41.621Z,20.70
2022-12-03T21:27:44.794Z,19.20
2022-12-03T21:32:47.907Z,20.20
2022-12-03T21:37:51.740Z,22.60
2022-12-03T21:42:54.747Z,20.00
2022-12-03T21:47:57.876Z,18.70
2022-12-03T21:53:00.964Z,20.60
2022-12-03T21:58:03.908Z,20.90
2022-12-03T22:03:06.930Z,19.50
2022-12-03T22:08:10.101Z,19.00
2022-12-03T22:13:13.084Z,20.10
2022-12-03T22:18:15.979Z,22.80
2022-12-03T22:23:18.963Z,22.60
2022-12-03T22:28:21.878Z,23.20
2022-12-03T22:33:25.183Z,22.00
2022-12-03T22:38:30.607Z,24.50
2022-12-03T22:43:34.320Z,23.10
2022-12-03T22:48:37.388Z,21.00
2022-12-03T22:53:40.536Z,21.40
2022-12-03T22:58:43.437Z,20.60
2022-12-03T23:03:46.369Z,21.80
2022-12-03T23:08:50.458Z,20.10
2022-12-03T23:13:54.306Z,22.80
2022-12-03T23:19:02.224Z,21.10
2022-12-03T23:24:06.314Z,22.90
2022-12-03T23:29:09.325Z,23.80
2022-12-03T23:34:12.336Z,22.80
2022-12-03T23:39:15.439Z,25.30
2022-12-03T23:44:18.927Z,23.80
2022-12-03T23:49:21.854Z,22.90
2022-12-03T23:54:24.928Z,23.40
2022-12-03T23:59:27.915Z,22.20
